createdAt,value
2017-11-09T00:00:55.305Z,12.40
2017-11-09T00:03:24.275Z,12.50
2017-11-09T00:05:58.244Z,12.50
2017-11-09T00:08:25.697Z,12.50
2017-11-09T00:10:53.142Z,12.40
2017-11-09T00:13:20.611Z,12.20
2017-11-09T00:15:48.069Z,12.10
2017-11-09T00:18:15.531Z,12.20
2017-11-09T00:20:42.985Z,12.30
2017-11-09T00:23:10.439Z,12.50
2017-11-09T00:25:37.904Z,12.60
2017-11-09T00:28:05.365Z,12.40
2017-11-09T00:30:33.587Z,12.10
2017-11-09T00:33:01.048Z,12.10
2017-11-09T00:35:28.513Z,12.10
2017-11-09T00:37:55.970Z,12.00
2017-11-09T00:40:24.931Z,12.00
2017-11-09T00:42:52.405Z,12.00
2017-11-09T00:45:20.614Z,12.00
2017-11-09T00:47:48.871Z,12.00
2017-11-09T00:50:17.134Z,11.90
2017-11-09T00:52:44.596Z,11.90
2017-11-09T00:55:12.056Z,11.90
2017-11-09T00:57:39.578Z,11.90
2017-11-09T01:00:07.035Z,12.60
2017-11-09T01:02:34.495Z,13.10
2017-11-09T01:05:01.958Z,13.50
2017-11-09T01:07:29.407Z,13.70
2017-11-09T01:09:56.871Z,13.80
2017-11-09T01:12:24.324Z,13.90
2017-11-09T01:14:51.786Z,14.00
2017-11-09T01:17:19.245Z,14.00
2017-11-09T01:19:47.478Z,14.10
2017-11-09T01:22:15.703Z,14.10
2017-11-09T01:24:43.946Z,14.20
2017-11-09T01:27:11.395Z,14.10
2017-11-09T01:29:38.862Z,14.20
2017-11-09T01:32:06.305Z,14.20
2017-11-09T01:34:34.526Z,14.20
2017-11-09T01:37:01.976Z,14.20
2017-11-09T01:39:29.457Z,14.30
2017-11-09T01:41:56.951Z,14.30
2017-11-09T01:44:24.417Z,14.30
2017-11-09T01:46:51.866Z,14.20
2017-11-09T01:49:19.335Z,14.20
2017-11-09T01:51:46.800Z,14.30
2017-11-09T01:54:14.253Z,14.30
2017-11-09T01:56:42.478Z,14.30
2017-11-09T01:59:09.924Z,14.30
2017-11-09T02:01:37.386Z,14.30
2017-11-09T02:04:04.842Z,14.30
2017-11-09T02:06:32.299Z,14.40
2017-11-09T02:08:59.752Z,14.30
2017-11-09T02:11:27.215Z,14.30
2017-11-09T02:13:54.672Z,14.30
2017-11-09T02:16:22.898Z,14.40
2017-11-09T02:18:50.355Z,14.30
2017-11-09T02:21:18.582Z,14.30
2017-11-09T02:23:46.030Z,14.30
2017-11-09T02:26:14.258Z,14.30
2017-11-09T02:28:42.483Z,14.30
2017-11-09T02:31:09.958Z,14.30
2017-11-09T02:33:37.416Z,14.30
2017-11-09T02:36:04.888Z,14.30
2017-11-09T02:38:33.127Z,14.40
2017-11-09T02:41:01.377Z,14.40
2017-11-09T02:43:28.829Z,14.30
2017-11-09T02:45:56.313Z,14.40
2017-11-09T02:48:23.783Z,14.40
2017-11-09T02:50:51.234Z,14.40
2017-11-09T02:53:18.700Z,14.40
2017-11-09T02:55:46.157Z,14.40
2017-11-09T02:58:13.615Z,14.30
2017-11-09T03:00:41.067Z,14.30
2017-11-09T03:03:08.535Z,14.30
2017-11-09T03:05:36.812Z,14.30
2017-11-09T03:08:04.281Z,14.30
2017-11-09T03:10:31.748Z,14.30
2017-11-09T03:12:59.202Z,14.40
2017-11-09T03:15:26.671Z,14.30
2017-11-09T03:17:54.895Z,14.40
2017-11-09T03:20:22.350Z,14.30
2017-11-09T03:22:49.806Z,14.30
2017-11-09T03:25:18.021Z,14.30
2017-11-09T03:27:46.252Z,14.40
2017-11-09T03:30:14.501Z,14.40
2017-11-09T03:32:42.723Z,14.40
2017-11-09T03:35:10.177Z,14.40
2017-11-09T03:37:37.678Z,14.40
2017-11-09T03:40:05.132Z,14.40
2017-11-09T03:42:33.358Z,14.40
2017-11-09T03:45:00.817Z,14.30
2017-11-09T03:47:29.036Z,14.30
2017-11-09T03:49:57.365Z,14.30
2017-11-09T03:52:24.832Z,14.30
2017-11-09T03:54:52.296Z,14.30
2017-11-09T03:57:19.755Z,14.30
2017-11-09T03:59:47.211Z,14.40
2017-11-09T04:02:14.666Z,14.30
2017-11-09T04:04:42.902Z,14.30
2017-11-09T04:07:10.361Z,14.30
2017-11-09T04:09:37.827Z,14.30
2017-11-09T04:12:05.293Z,14.30
2017-11-09T04:14:32.771Z,14.30
2017-11-09T04:17:00.984Z,14.30
2017-11-09T04:19:29.207Z,14.30
2017-11-09T04:21:57.431Z,14.30
2017-11-09T04:24:25.658Z,14.30
2017-11-09T04:26:53.107Z,14.30
2017-11-09T04:29:20.576Z,14.30
2017-11-09T04:31:48.022Z,14.30
2017-11-09T04:34:15.491Z,14.30
2017-11-09T04:36:42.956Z,14.30
2017-11-09T04:39:10.418Z,14.30
2017-11-09T04:41:37.882Z,14.30
2017-11-09T04:44:05.376Z,14.30
2017-11-09T04:46:33.603Z,14.30
2017-11-09T04:49:01.056Z,14.20
2017-11-09T04:51:28.521Z,14.20
2017-11-09T04:53:55.991Z,14.30
2017-11-09T04:56:23.454Z,14.30
2017-11-09T04:58:50.922Z,14.30
2017-11-09T05:01:18.388Z,14.30
2017-11-09T05:03:46.602Z,14.20
2017-11-09T05:06:14.086Z,14.20
2017-11-09T05:08:42.298Z,14.20
2017-11-09T05:11:10.532Z,14.20
2017-11-09T05:13:38.757Z,14.20
2017-11-09T05:16:06.981Z,14.20
2017-11-09T05:18:34.431Z,14.20
2017-11-09T05:21:02.659Z,14.20
2017-11-09T05:23:30.896Z,14.20
2017-11-09T05:25:58.357Z,14.20
2017-11-09T05:28:25.815Z,14.20
2017-11-09T05:30:53.290Z,14.20
2017-11-09T05:33:21.512Z,14.20
2017-11-09T05:35:49.000Z,14.20
2017-11-09T05:38:16.454Z,14.20
2017-11-09T05:40:44.673Z,14.20
2017-11-09T05:43:12.906Z,14.30
2017-11-09T05:45:40.370Z,14.30
2017-11-09T05:48:08.599Z,14.30
2017-11-09T05:50:36.816Z,14.30
2017-11-09T05:53:04.282Z,14.20
2017-11-09T05:55:31.735Z,14.20
2017-11-09T05:57:59.203Z,14.20
2017-11-09T06:00:26.651Z,14.20
2017-11-09T06:02:54.883Z,14.30
2017-11-09T06:05:22.335Z,14.20
2017-11-09T06:07:49.792Z,14.20
2017-11-09T06:10:17.250Z,14.20
2017-11-09T06:12:44.720Z,14.30
2017-11-09T06:15:12.175Z,14.30
2017-11-09T06:17:39.657Z,14.30
2017-11-09T06:20:07.116Z,14.20
2017-11-09T06:22:34.588Z,14.30
2017-11-09T06:25:02.043Z,14.30
2017-11-09T06:27:30.270Z,14.30
2017-11-09T06:29:57.730Z,14.30
2017-11-09T06:32:25.959Z,14.20
2017-11-09T06:34:53.416Z,14.20
2017-11-09T06:37:20.876Z,14.20
2017-11-09T06:39:48.337Z,14.30
2017-11-09T06:42:15.787Z,14.20
2017-11-09T06:44:43.262Z,14.20
2017-11-09T06:47:11.496Z,14.30
2017-11-09T06:49:38.951Z,14.20
2017-11-09T06:52:06.421Z,14.30
2017-11-09T06:54:33.920Z,14.30
2017-11-09T06:57:02.155Z,14.30
2017-11-09T06:59:31.147Z,14.30
2017-11-09T07:01:59.379Z,14.30
2017-11-09T07:04:26.845Z,14.30
2017-11-09T07:06:54.310Z,14.30
2017-11-09T07:09:21.771Z,14.30
2017-11-09T07:11:49.247Z,14.30
2017-11-09T07:14:16.723Z,14.30
2017-11-09T07:16:44.960Z,14.30
2017-11-09T07:19:12.426Z,14.30
2017-11-09T07:21:40.639Z,14.30
2017-11-09T07:24:08.096Z,14.30
2017-11-09T07:26:35.563Z,14.40
2017-11-09T07:29:03.818Z,14.40
2017-11-09T07:31:32.043Z,14.40
2017-11-09T07:33:59.502Z,14.40
2017-11-09T07:36:27.732Z,14.50
2017-11-09T07:38:55.187Z,14.50
2017-11-09T07:41:22.639Z,14.50
2017-11-09T07:43:50.149Z,14.60
2017-11-09T07:46:17.625Z,14.60
2017-11-09T07:48:45.096Z,14.60
2017-11-09T07:51:12.577Z,14.60
2017-11-09T07:53:40.028Z,14.70
2017-11-09T07:56:07.495Z,14.70
2017-11-09T07:58:34.949Z,14.80
2017-11-09T08:01:02.412Z,14.80
2017-11-09T08:03:29.867Z,14.80
2017-11-09T08:05:58.112Z,14.90
2017-11-09T08:08:26.347Z,15.00
2017-11-09T08:10:53.829Z,15.00
2017-11-09T08:13:21.288Z,15.00
2017-11-09T08:15:48.751Z,15.10
2017-11-09T08:18:16.208Z,15.10
2017-11-09T08:20:43.684Z,15.30
2017-11-09T08:23:11.135Z,15.20
2017-11-09T08:25:39.553Z,15.30
2017-11-09T08:28:07.378Z,15.30
2017-11-09T08:30:36.897Z,15.40
2017-11-09T08:33:07.040Z,15.50
2017-11-09T08:35:35.267Z,15.50
2017-11-09T08:38:02.744Z,15.50
2017-11-09T08:40:30.203Z,15.50
2017-11-09T08:42:57.675Z,15.50
2017-11-09T08:45:25.170Z,15.40
2017-11-09T08:47:52.627Z,15.40
2017-11-09T08:50:20.083Z,15.40
2017-11-09T08:52:47.550Z,15.40
2017-11-09T08:55:14.994Z,15.30
2017-11-09T08:57:43.222Z,15.30
2017-11-09T09:00:10.688Z,15.20
2017-11-09T09:02:38.149Z,15.20
2017-11-09T09:05:05.603Z,15.30
2017-11-09T09:07:33.070Z,15.20
2017-11-09T09:10:00.528Z,15.30
2017-11-09T09:12:28.769Z,15.30
2017-11-09T09:14:56.227Z,15.30
2017-11-09T09:17:23.696Z,15.30
2017-11-09T09:19:51.149Z,15.30
2017-11-09T09:22:23.165Z,15.30
2017-11-09T09:24:50.620Z,15.40
2017-11-09T09:27:20.420Z,15.40
2017-11-09T09:29:54.186Z,15.50
2017-11-09T09:32:22.231Z,15.40
2017-11-09T09:34:55.661Z,15.50
2017-11-09T09:37:23.920Z,15.40
2017-11-09T09:39:59.189Z,15.40
2017-11-09T09:42:26.658Z,15.40
2017-11-09T09:44:54.120Z,15.30
2017-11-09T09:47:22.349Z,15.30
2017-11-09T09:49:49.819Z,15.30
2017-11-09T09:52:17.284Z,15.30
2017-11-09T09:54:44.768Z,15.30
2017-11-09T09:57:12.234Z,15.40
2017-11-09T09:59:40.472Z,15.40
2017-11-09T10:02:07.952Z,15.40
2017-11-09T10:04:35.427Z,15.40
2017-11-09T10:07:03.667Z,15.50
2017-11-09T10:09:31.123Z,15.50
2017-11-09T10:11:58.582Z,15.60
2017-11-09T10:14:26.051Z,15.60
2017-11-09T10:16:53.520Z,15.60
2017-11-09T10:19:21.759Z,15.60
2017-11-09T10:21:49.991Z,15.60
2017-11-09T10:24:18.216Z,15.50
2017-11-09T10:26:45.688Z,15.50
2017-11-09T10:29:13.928Z,15.50
2017-11-09T10:31:41.388Z,15.40
2017-11-09T10:34:10.440Z,15.40
2017-11-09T10:36:38.666Z,15.50
2017-11-09T10:39:06.150Z,15.50
2017-11-09T10:41:33.626Z,15.50
2017-11-09T10:44:01.864Z,15.70
2017-11-09T10:46:29.352Z,15.70
2017-11-09T10:48:56.810Z,15.70
2017-11-09T10:51:24.285Z,15.70
2017-11-09T10:53:52.523Z,15.70
2017-11-09T10:56:19.990Z,15.70
2017-11-09T10:58:47.468Z,15.70
2017-11-09T11:01:15.698Z,15.70
2017-11-09T11:03:43.174Z,15.60
2017-11-09T11:06:10.635Z,15.60
2017-11-09T11:08:38.155Z,15.60
2017-11-09T11:11:05.615Z,15.60
2017-11-09T11:13:33.844Z,15.50
2017-11-09T11:16:01.326Z,15.50
2017-11-09T11:18:28.775Z,15.50
2017-11-09T11:20:56.246Z,15.50
2017-11-09T11:23:23.704Z,15.50
2017-11-09T11:25:51.176Z,15.50
2017-11-09T11:28:18.632Z,15.50
2017-11-09T11:30:46.124Z,15.50
2017-11-09T11:33:13.588Z,15.50
2017-11-09T11:35:41.054Z,15.60
2017-11-09T11:38:08.507Z,15.60
2017-11-09T11:40:35.991Z,15.50
2017-11-09T11:43:04.214Z,15.70
2017-11-09T11:45:31.685Z,15.70
2017-11-09T11:47:59.891Z,15.70
2017-11-09T11:50:28.130Z,15.80
2017-11-09T11:52:55.603Z,15.80
2017-11-09T11:55:23.061Z,15.80
2017-11-09T11:57:50.545Z,15.90
2017-11-09T12:00:18.762Z,16.30
2017-11-09T12:02:46.234Z,16.30
2017-11-09T12:05:15.463Z,16.30
2017-11-09T12:07:43.699Z,16.40
2017-11-09T12:10:11.939Z,16.40
2017-11-09T12:12:39.397Z,16.40
2017-11-09T12:15:06.846Z,16.60
2017-11-09T12:17:35.089Z,16.90
2017-11-09T12:20:02.548Z,16.90
2017-11-09T12:22:32.788Z,17.40
2017-11-09T12:25:01.034Z,21.10
2017-11-09T12:27:28.504Z,21.00
2017-11-09T12:29:55.978Z,22.30
2017-11-09T12:32:24.218Z,23.60
2017-11-09T12:34:51.673Z,23.60
2017-11-09T12:37:19.141Z,23.90
2017-11-09T12:39:46.596Z,24.80
2017-11-09T12:42:14.057Z,24.80
2017-11-09T12:44:42.282Z,24.90
2017-11-09T12:47:10.523Z,25.00
2017-11-09T12:49:38.761Z,25.00
2017-11-09T12:52:06.214Z,25.00
2017-11-09T12:54:33.668Z,24.60
2017-11-09T12:57:01.145Z,24.40
2017-11-09T12:59:29.367Z,23.10
2017-11-09T13:01:57.599Z,23.00
2017-11-09T13:04:25.060Z,23.00
2017-11-09T13:06:53.288Z,23.60
2017-11-09T13:09:20.755Z,23.60
2017-11-09T13:11:49.041Z,23.80
2017-11-09T13:14:16.540Z,23.80
2017-11-09T13:16:44.009Z,23.30
2017-11-09T13:19:12.248Z,21.90
2017-11-09T13:21:39.711Z,21.90
2017-11-09T13:24:07.194Z,21.50
2017-11-09T13:26:34.656Z,21.30
2017-11-09T13:29:02.899Z,21.20
2017-11-09T13:31:30.352Z,21.20
2017-11-09T13:33:57.807Z,20.90
2017-11-09T13:36:26.033Z,20.00
2017-11-09T13:38:54.259Z,19.70
2017-11-09T13:41:22.484Z,19.40
2017-11-09T13:43:49.948Z,19.40
2017-11-09T13:46:18.175Z,18.90
2017-11-09T13:48:45.652Z,18.80
2017-11-09T13:51:13.109Z,18.80
2017-11-09T13:53:40.602Z,18.50
2017-11-09T13:56:08.830Z,18.20
2017-11-09T13:58:36.297Z,18.20
2017-11-09T14:01:03.751Z,18.00
2017-11-09T14:03:31.206Z,17.90
2017-11-09T14:05:58.658Z,17.80
2017-11-09T14:08:26.126Z,17.80
2017-11-09T14:10:53.579Z,17.70
2017-11-09T14:13:21.037Z,17.70
2017-11-09T14:15:48.513Z,17.60
2017-11-09T14:18:15.959Z,17.60
2017-11-09T14:20:43.410Z,17.50
2017-11-09T14:23:10.874Z,17.40
2017-11-09T14:25:39.111Z,17.20
2017-11-09T14:28:06.568Z,17.20
2017-11-09T14:30:34.038Z,17.20
2017-11-09T14:33:01.488Z,17.10
2017-11-09T14:35:28.960Z,17.10
2017-11-09T14:37:56.429Z,17.00
2017-11-09T14:40:24.667Z,16.90
2017-11-09T14:42:52.134Z,16.90
2017-11-09T14:45:19.604Z,16.90
2017-11-09T14:47:47.055Z,16.80
2017-11-09T14:50:14.525Z,16.80
2017-11-09T14:52:42.744Z,16.70
2017-11-09T14:55:10.971Z,16.60
2017-11-09T14:57:38.439Z,16.60
2017-11-09T15:00:05.914Z,16.50
2017-11-09T15:02:33.369Z,16.50
2017-11-09T15:05:00.845Z,16.40
2017-11-09T15:07:29.074Z,16.30
2017-11-09T15:09:57.299Z,16.30
2017-11-09T15:12:25.523Z,16.30
2017-11-09T15:14:52.980Z,16.30
2017-11-09T15:17:20.440Z,16.20
2017-11-09T15:19:47.898Z,16.20
2017-11-09T15:22:15.380Z,16.10
2017-11-09T15:24:46.743Z,16.10
2017-11-09T15:27:14.975Z,16.10
2017-11-09T15:29:42.432Z,16.00
2017-11-09T15:32:10.683Z,16.10
2017-11-09T15:34:38.153Z,16.00
2017-11-09T15:37:05.640Z,16.00
2017-11-09T15:39:33.091Z,15.90
2017-11-09T15:42:00.558Z,15.90
2017-11-09T15:44:28.015Z,15.90
2017-11-09T15:46:55.477Z,15.80
2017-11-09T15:49:22.941Z,15.80
2017-11-09T15:51:50.422Z,15.80
2017-11-09T15:54:17.885Z,15.80
2017-11-09T15:56:45.350Z,15.70
2017-11-09T15:59:12.816Z,15.70
2017-11-09T16:01:40.286Z,15.70
2017-11-09T16:04:07.759Z,15.70
2017-11-09T16:06:38.044Z,15.70
2017-11-09T16:09:05.508Z,15.70
2017-11-09T16:11:32.960Z,15.60
2017-11-09T16:14:00.427Z,15.60
2017-11-09T16:16:27.887Z,15.60
2017-11-09T16:18:55.352Z,15.60
2017-11-09T16:21:22.818Z,15.50
2017-11-09T16:23:56.811Z,15.50
2017-11-09T16:26:27.043Z,15.50
2017-11-09T16:28:58.480Z,15.50
2017-11-09T16:31:25.940Z,15.50
2017-11-09T16:33:53.443Z,15.40
2017-11-09T16:36:20.899Z,15.40
2017-11-09T16:38:49.136Z,15.40
2017-11-09T16:41:16.596Z,15.40
2017-11-09T16:43:44.819Z,15.40
2017-11-09T16:46:13.484Z,15.30
2017-11-09T16:48:40.944Z,15.30
2017-11-09T16:51:08.402Z,15.40
2017-11-09T16:53:35.869Z,15.40
2017-11-09T16:56:03.350Z,15.30
2017-11-09T16:58:31.605Z,15.30
2017-11-09T17:00:59.064Z,15.30
2017-11-09T17:03:26.532Z,15.30
2017-11-09T17:05:53.999Z,15.30
2017-11-09T17:08:22.248Z,15.20
2017-11-09T17:10:49.714Z,15.20
2017-11-09T17:13:17.172Z,15.20
2017-11-09T17:15:44.631Z,15.20
2017-11-09T17:18:13.647Z,15.20
2017-11-09T17:20:41.920Z,15.20
2017-11-09T17:23:10.149Z,15.10
2017-11-09T17:25:38.382Z,15.20
2017-11-09T17:28:06.601Z,15.20
2017-11-09T17:30:34.071Z,15.20
2017-11-09T17:33:04.050Z,15.10
2017-11-09T17:35:31.511Z,15.20
2017-11-09T17:37:59.005Z,15.20
2017-11-09T17:40:26.496Z,15.10
2017-11-09T17:42:54.710Z,15.20
2017-11-09T17:45:22.179Z,15.20
2017-11-09T17:47:49.630Z,15.20
2017-11-09T17:50:17.090Z,15.10
2017-11-09T17:52:44.538Z,15.10
2017-11-09T17:55:12.004Z,15.10
2017-11-09T17:57:39.455Z,15.10
2017-11-09T18:00:12.491Z,15.10
2017-11-09T18:02:40.720Z,15.10
2017-11-09T18:05:08.204Z,15.10
2017-11-09T18:07:35.655Z,15.10
2017-11-09T18:10:03.119Z,15.00
2017-11-09T18:12:30.580Z,14.40
2017-11-09T18:14:58.038Z,14.30
2017-11-09T18:17:25.499Z,14.20
2017-11-09T18:19:52.961Z,14.00
2017-11-09T18:22:20.428Z,14.10
2017-11-09T18:24:49.533Z,13.60
2017-11-09T18:27:16.992Z,13.60
2017-11-09T18:29:44.443Z,13.50
2017-11-09T18:32:12.675Z,13.00
2017-11-09T18:34:40.130Z,12.90
2017-11-09T18:37:07.603Z,12.90
2017-11-09T18:39:35.059Z,12.80
2017-11-09T18:42:02.527Z,12.80
2017-11-09T18:44:29.986Z,12.80
2017-11-09T18:46:57.455Z,12.70
2017-11-09T18:49:25.683Z,12.80
2017-11-09T18:51:53.142Z,12.80
2017-11-09T18:54:20.608Z,12.70
2017-11-09T18:56:48.072Z,12.70
2017-11-09T18:59:18.294Z,12.70
2017-11-09T19:01:45.765Z,12.70
2017-11-09T19:04:13.232Z,12.80
2017-11-09T19:06:40.687Z,13.60
2017-11-09T19:09:08.920Z,14.00
2017-11-09T19:11:36.374Z,14.20
2017-11-09T19:14:03.843Z,14.30
2017-11-09T19:16:31.291Z,14.40
2017-11-09T19:18:58.778Z,14.50
2017-11-09T19:21:26.233Z,14.50
2017-11-09T19:23:53.702Z,14.50
2017-11-09T19:26:21.165Z,14.60
2017-11-09T19:28:48.615Z,14.60
2017-11-09T19:31:16.063Z,14.60
2017-11-09T19:33:43.533Z,14.60
2017-11-09T19:36:10.993Z,14.60
2017-11-09T19:38:38.472Z,14.70
2017-11-09T19:41:06.708Z,14.70
2017-11-09T19:43:34.164Z,14.60
2017-11-09T19:46:01.615Z,14.60
2017-11-09T19:48:29.075Z,14.60
2017-11-09T19:50:56.539Z,14.60
2017-11-09T19:53:23.990Z,14.60
2017-11-09T19:55:51.480Z,14.60
2017-11-09T19:58:18.921Z,14.60
2017-11-09T20:00:46.383Z,14.60
2017-11-09T20:03:13.842Z,14.60
2017-11-09T20:05:41.301Z,14.60
2017-11-09T20:08:09.535Z,14.60
2017-11-09T20:10:36.999Z,14.60
2017-11-09T20:13:04.456Z,14.60
2017-11-09T20:15:31.921Z,14.60
2017-11-09T20:17:59.383Z,14.60
2017-11-09T20:20:26.838Z,14.60
2017-11-09T20:22:54.291Z,14.60
2017-11-09T20:25:21.750Z,14.60
2017-11-09T20:27:49.203Z,14.60
2017-11-09T20:30:16.668Z,14.60
2017-11-09T20:32:44.123Z,14.60
2017-11-09T20:35:11.588Z,14.60
2017-11-09T20:37:39.052Z,14.60
2017-11-09T20:40:06.503Z,14.60
2017-11-09T20:42:33.973Z,14.70
2017-11-09T20:45:01.620Z,14.60
2017-11-09T20:47:29.111Z,14.70
2017-11-09T20:49:57.334Z,14.70
2017-11-09T20:52:24.802Z,14.60
2017-11-09T20:54:52.260Z,14.70
2017-11-09T20:57:19.729Z,14.70
2017-11-09T20:59:47.183Z,14.70
2017-11-09T21:02:29.049Z,14.70
2017-11-09T21:04:56.517Z,14.70
2017-11-09T21:07:23.979Z,14.70
2017-11-09T21:09:51.439Z,14.70
2017-11-09T21:12:18.908Z,14.70
2017-11-09T21:14:46.378Z,14.70
2017-11-09T21:17:13.840Z,14.70
2017-11-09T21:19:41.311Z,14.70
2017-11-09T21:22:10.579Z,14.70
2017-11-09T21:24:38.588Z,14.70
2017-11-09T21:27:06.843Z,14.70
2017-11-09T21:29:34.302Z,14.70
2017-11-09T21:32:01.755Z,14.80
2017-11-09T21:34:29.223Z,14.70
2017-11-09T21:36:57.547Z,14.70
2017-11-09T21:39:25.003Z,14.70
2017-11-09T21:41:52.482Z,14.80
2017-11-09T21:44:19.960Z,14.70
2017-11-09T21:46:47.415Z,14.80
2017-11-09T21:49:14.879Z,14.70
2017-11-09T21:51:42.353Z,14.80
2017-11-09T21:54:10.691Z,14.80
2017-11-09T21:56:38.153Z,14.80
2017-11-09T21:59:05.628Z,14.80
2017-11-09T22:01:33.081Z,14.80
2017-11-09T22:04:00.543Z,14.80
2017-11-09T22:06:28.005Z,14.80
2017-11-09T22:08:55.465Z,14.80
2017-11-09T22:11:23.691Z,14.80
2017-11-09T22:13:51.147Z,14.80
2017-11-09T22:16:18.615Z,14.80
2017-11-09T22:18:46.290Z,14.80
2017-11-09T22:21:13.780Z,14.80
2017-11-09T22:23:42.033Z,14.80
2017-11-09T22:26:09.490Z,14.80
2017-11-09T22:28:36.947Z,14.80
2017-11-09T22:31:04.439Z,14.80
2017-11-09T22:33:32.658Z,14.80
2017-11-09T22:36:00.113Z,14.80
2017-11-09T22:38:27.637Z,14.80
2017-11-09T22:40:55.196Z,14.90
2017-11-09T22:43:22.659Z,14.90
2017-11-09T22:45:50.147Z,14.90
2017-11-09T22:48:17.622Z,14.90
2017-11-09T22:50:45.102Z,14.80
2017-11-09T22:53:12.556Z,14.90
2017-11-09T22:55:40.027Z,14.80
2017-11-09T22:58:10.205Z,14.90
2017-11-09T23:00:37.676Z,14.90
2017-11-09T23:03:05.132Z,14.80
2017-11-09T23:05:32.604Z,14.80
2017-11-09T23:08:00.054Z,14.90
2017-11-09T23:10:27.537Z,14.90
2017-11-09T23:12:55.763Z,14.80
2017-11-09T23:15:23.231Z,14.90
2017-11-09T23:17:51.464Z,14.90
2017-11-09T23:20:19.689Z,14.90
2017-11-09T23:22:47.155Z,14.80
2017-11-09T23:25:16.128Z,14.80
2017-11-09T23:27:43.603Z,14.80
2017-11-09T23:30:11.067Z,14.90
2017-11-09T23:32:38.539Z,14.80
2017-11-09T23:35:05.990Z,14.80
2017-11-09T23:37:34.216Z,14.80
2017-11-09T23:40:01.679Z,14.80
2017-11-09T23:42:29.146Z,14.80
2017-11-09T23:44:57.362Z,14.80
2017-11-09T23:47:25.599Z,14.80
2017-11-09T23:49:53.067Z,14.80
2017-11-09T23:52:20.539Z,14.80
2017-11-09T23:54:49.507Z,14.80
2017-11-09T23:57:16.986Z,14.80
2017-11-09T23:59:44.451Z,14.80
